Time;durP1;ratioP1;P1;durP2;ratioP2;P2;SDS_P1;SDS_P2;PMS_P1;PMS_P2;Temp;Humidity;BMP_temperature;BMP_pressure;BME280_temperature;BME280_humidity;BME280_pressure;Samples;Min_cycle;Max_cycle;Signal;HPM_P1;HPM_P2
2021/03/28 00:01:18;;;;;;;10.60;3.73;;;5.90;63.20;;;;;;5023491;28;20452;-79
2021/03/28 00:03:58;;;;;;;5.70;3.13;;;5.90;62.90;;;;;;5021862;28;20498;-78
2021/03/28 00:06:29;;;;;;;8.60;3.00;;;6.00;63.10;;;;;;5014233;28;20440;-79
2021/03/28 00:09:14;;;;;;;3.03;2.47;;;6.00;63.00;;;;;;5012593;28;20479;-80
2021/03/28 00:12:02;;;;;;;7.93;2.70;;;6.00;63.00;;;;;;5013061;28;20474;-79
2021/03/28 00:14:49;;;;;;;5.30;2.40;;;6.00;62.90;;;;;;5018067;28;20465;-80
2021/03/28 00:17:27;;;;;;;4.40;2.90;;;6.00;62.70;;;;;;5022740;28;20479;-79
2021/03/28 00:19:58;;;;;;;5.50;2.73;;;6.00;63.00;;;;;;5015925;28;21093;-78
2021/03/28 00:22:31;;;;;;;7.73;3.37;;;6.10;63.00;;;;;;5017500;28;20522;-81
2021/03/28 00:25:06;;;;;;;4.53;3.20;;;6.10;63.10;;;;;;5018814;28;20449;-79
2021/03/28 00:27:40;;;;;;;5.83;3.37;;;6.00;63.10;;;;;;5023284;28;20452;-79
2021/03/28 00:30:22;;;;;;;5.57;2.90;;;6.10;63.10;;;;;;5018622;28;20484;-79
2021/03/28 00:32:52;;;;;;;4.63;2.63;;;6.10;63.10;;;;;;5018002;28;20470;-79
2021/03/28 00:35:22;;;;;;;5.63;2.77;;;6.00;63.60;;;;;;5016469;28;20821;-80
2021/03/28 00:38:03;;;;;;;5.10;2.73;;;6.00;63.00;;;;;;5017400;28;20484;-79
2021/03/28 00:40:32;;;;;;;4.20;3.17;;;6.00;62.70;;;;;;5016747;28;20544;-80
2021/03/28 00:43:21;;;;;;;5.40;3.20;;;6.10;62.60;;;;;;5018457;28;20456;-78
2021/03/28 00:45:57;;;;;;;5.13;2.83;;;6.10;62.60;;;;;;5010243;28;20488;-79
2021/03/28 00:48:27;;;;;;;6.23;2.90;;;6.10;62.70;;;;;;5015759;28;20595;-79
2021/03/28 00:50:57;;;;;;;8.03;3.07;;;6.10;62.70;;;;;;5012480;28;20454;-80
2021/03/28 00:53:35;;;;;;;7.23;3.10;;;6.10;62.60;;;;;;5021161;28;20465;-79
2021/03/28 00:56:09;;;;;;;7.37;3.10;;;6.20;62.70;;;;;;5028781;28;20450;-80
2021/03/28 00:58:56;;;;;;;5.30;3.43;;;6.20;62.70;;;;;;5026289;28;20965;-79
2021/03/28 01:01:33;;;;;;;5.33;3.27;;;6.30;62.80;;;;;;5030954;28;20443;-80
2021/03/28 01:04:33;;;;;;;6.00;2.60;;;6.30;62.80;;;;;;5036466;28;20520;-79
2021/03/28 01:07:12;;;;;;;10.10;4.30;;;6.30;63.10;;;;;;5018647;28;20447;-80
2021/03/28 01:09:57;;;;;;;4.40;3.13;;;6.30;63.10;;;;;;5023531;28;20468;-80
2021/03/28 01:12:57;;;;;;;6.40;3.30;;;6.30;63.20;;;;;;5021312;28;20549;-80
2021/03/28 01:16:20;;;;;;;8.43;3.13;;;6.30;63.10;;;;;;5018093;28;20533;-80
2021/03/28 01:18:58;;;;;;;8.43;3.60;;;6.40;63.00;;;;;;5012160;28;20449;-78
2021/03/28 01:21:39;;;;;;;6.20;2.97;;;6.40;63.00;;;;;;5014739;28;20484;-78
2021/03/28 01:24:18;;;;;;;7.70;3.27;;;6.40;63.10;;;;;;5009910;28;20448;-79
2021/03/28 01:27:15;;;;;;;7.43;3.30;;;6.40;63.10;;;;;;5012369;28;21044;-78
2021/03/28 01:29:44;;;;;;;3.60;3.13;;;6.50;63.30;;;;;;5014862;28;20549;-79
2021/03/28 01:32:21;;;;;;;8.83;4.17;;;6.50;63.70;;;;;;5021654;28;20677;-79
2021/03/28 01:34:51;;;;;;;4.83;3.90;;;6.50;63.80;;;;;;5016712;28;20481;-79
2021/03/28 01:37:22;;;;;;;6.57;3.70;;;6.50;64.20;;;;;;5011395;28;20523;-79
2021/03/28 01:39:58;;;;;;;7.80;3.60;;;6.50;64.40;;;;;;5015460;28;20563;-81
2021/03/28 01:42:41;;;;;;;4.43;3.30;;;6.50;64.50;;;;;;5015045;28;20475;-79
2021/03/28 01:45:15;;;;;;;7.67;3.97;;;6.50;64.40;;;;;;5024765;28;20466;-79
2021/03/28 01:47:56;;;;;;;8.37;3.40;;;6.40;64.40;;;;;;5015670;28;20489;-79
2021/03/28 01:50:42;;;;;;;5.30;3.30;;;6.30;64.30;;;;;;5012793;28;20482;-80
2021/03/28 01:53:24;;;;;;;6.00;3.43;;;6.30;64.50;;;;;;5008737;28;20569;-77
2021/03/28 01:55:59;;;;;;;8.43;3.57;;;6.20;64.70;;;;;;5012700;28;20481;-78
2021/03/28 01:58:35;;;;;;;7.20;3.80;;;6.20;64.80;;;;;;5001229;28;20458;-78
2021/03/28 02:01:19;;;;;;;8.70;3.50;;;6.10;64.70;;;;;;5010321;28;20538;-78
2021/03/28 02:03:56;;;;;;;8.93;4.13;;;6.10;64.80;;;;;;5007694;28;20547;-78
2021/03/28 02:06:42;;;;;;;7.30;4.53;;;6.10;64.90;;;;;;5012944;28;20445;-79
2021/03/28 02:09:28;;;;;;;7.00;3.23;;;6.00;65.00;;;;;;5012267;28;20881;-82
2021/03/28 02:12:06;;;;;;;5.97;3.53;;;6.00;65.20;;;;;;5015202;28;20482;-79
2021/03/28 02:15:06;;;;;;;5.60;2.70;;;6.00;65.40;;;;;;5016369;28;20452;-80
2021/03/28 02:17:47;;;;;;;5.37;3.10;;;6.10;65.50;;;;;;5020439;28;20459;-79
2021/03/28 02:20:31;;;;;;;3.77;3.23;;;6.20;65.60;;;;;;5032713;28;20449;-81
2021/03/28 02:23:08;;;;;;;9.00;4.23;;;6.10;65.40;;;;;;5027630;28;20440;-81
2021/03/28 02:25:43;;;;;;;7.03;3.70;;;6.00;65.40;;;;;;5029575;28;20436;-80
2021/03/28 02:28:14;;;;;;;7.77;3.40;;;6.00;65.60;;;;;;5023773;28;20444;-80
2021/03/28 02:30:52;;;;;;;6.70;3.40;;;6.00;65.70;;;;;;5013003;28;20805;-79
2021/03/28 02:33:25;;;;;;;7.73;3.53;;;5.80;65.90;;;;;;5006160;28;20541;-79
2021/03/28 02:36:04;;;;;;;5.83;3.50;;;5.80;66.00;;;;;;5014607;28;20487;-79
2021/03/28 02:39:08;;;;;;;4.73;3.87;;;5.80;66.10;;;;;;5015820;28;20480;-80
2021/03/28 02:41:47;;;;;;;5.87;3.13;;;5.80;66.50;;;;;;5030330;28;20438;-82
2021/03/28 02:44:32;;;;;;;6.67;3.30;;;5.80;66.60;;;;;;5032927;28;20443;-81
2021/03/28 02:47:13;;;;;;;5.53;3.67;;;5.80;66.90;;;;;;5027358;28;20448;-82
2021/03/28 02:49:53;;;;;;;7.20;3.70;;;5.80;67.00;;;;;;5025482;28;20464;-82
2021/03/28 02:52:54;;;;;;;6.00;3.60;;;5.90;67.20;;;;;;5026446;28;20624;-82
2021/03/28 02:55:36;;;;;;;9.77;3.87;;;5.80;67.30;;;;;;5014472;28;20517;-82
2021/03/28 02:58:34;;;;;;;5.73;3.47;;;5.80;67.50;;;;;;5018597;28;20457;-82
2021/03/28 03:01:24;;;;;;;4.60;3.47;;;5.70;67.60;;;;;;4994230;28;20466;-82
2021/03/28 03:04:08;;;;;;;4.60;3.37;;;5.70;67.70;;;;;;5032242;28;20455;-83
2021/03/28 03:07:03;;;;;;;6.97;3.93;;;5.60;68.00;;;;;;5027857;28;20464;-82
2021/03/28 03:09:47;;;;;;;8.33;3.57;;;5.60;68.40;;;;;;4994230;28;20471;-82
2021/03/28 03:12:30;;;;;;;9.80;4.50;;;5.50;68.60;;;;;;5030612;28;20465;-82
2021/03/28 03:15:06;;;;;;;12.10;4.20;;;5.40;69.10;;;;;;5032938;28;20441;-83
2021/03/28 03:18:18;;;;;;;7.70;4.30;;;5.30;69.60;;;;;;5022689;28;20576;-82
2021/03/28 03:21:12;;;;;;;8.27;4.43;;;5.20;69.60;;;;;;4973106;28;20958;-82
2021/03/28 03:24:09;;;;;;;7.33;3.57;;;5.10;70.20;;;;;;5022053;28;20468;-81
2021/03/28 03:27:18;;;;;;;9.93;3.43;;;5.20;69.90;;;;;;5021062;28;20492;-81
2021/03/28 03:30:06;;;;;;;8.97;4.23;;;5.30;69.80;;;;;;5023757;28;20459;-82
2021/03/28 03:32:59;;;;;;;6.13;3.53;;;5.50;69.70;;;;;;5019982;28;20546;-80
2021/03/28 03:35:41;;;;;;;5.53;3.00;;;5.60;69.00;;;;;;5028368;28;20463;-81
2021/03/28 03:38:36;;;;;;;8.53;3.23;;;5.60;68.70;;;;;;5027947;28;20450;-81
2021/03/28 03:41:32;;;;;;;9.47;3.00;;;5.70;68.60;;;;;;5030439;28;20481;-80
2021/03/28 03:44:14;;;;;;;6.37;3.37;;;5.70;68.60;;;;;;4964207;28;20555;-82
2021/03/28 03:47:16;;;;;;;6.20;3.53;;;5.70;68.30;;;;;;5028108;28;20538;-81
2021/03/28 03:49:58;;;;;;;8.43;3.23;;;5.70;68.00;;;;;;5026964;28;20448;-82
2021/03/28 03:53:01;;;;;;;6.93;3.10;;;5.80;68.10;;;;;;5032868;28;20485;-83
2021/03/28 03:55:37;;;;;;;11.40;3.10;;;5.80;67.90;;;;;;5037394;28;20899;-81
2021/03/28 03:58:18;;;;;;;9.00;3.50;;;6.00;68.00;;;;;;5029736;28;20460;-81
2021/03/28 04:00:53;;;;;;;10.47;4.27;;;5.80;67.70;;;;;;5034866;28;21381;-82
2021/03/28 04:03:28;;;;;;;7.47;3.13;;;5.90;67.80;;;;;;5027338;28;20447;-82
2021/03/28 04:06:22;;;;;;;6.57;3.50;;;5.90;67.90;;;;;;5023860;28;20455;-81
2021/03/28 04:09:17;;;;;;;9.40;3.53;;;5.90;67.30;;;;;;5020515;28;20448;-81
2021/03/28 04:12:15;;;;;;;7.07;2.90;;;5.90;67.10;;;;;;5034363;28;20476;-81
2021/03/28 04:15:26;;;;;;;4.40;2.80;;;6.00;67.10;;;;;;5030609;28;20460;-81
2021/03/28 04:18:08;;;;;;;6.93;3.30;;;6.00;66.50;;;;;;4995051;28;20460;-81
2021/03/28 04:20:48;;;;;;;8.47;2.97;;;6.00;66.30;;;;;;5032462;28;20440;-81
2021/03/28 04:23:45;;;;;;;3.00;2.70;;;6.00;66.00;;;;;;5035636;28;20483;-82
2021/03/28 04:26:35;;;;;;;8.13;3.17;;;6.00;66.00;;;;;;5032900;28;20468;-81
2021/03/28 04:29:07;;;;;;;9.73;2.80;;;5.90;65.80;;;;;;5029898;28;20470;-80
2021/03/28 04:32:03;;;;;;;6.90;2.83;;;6.00;65.70;;;;;;5028746;28;20480;-81
2021/03/28 04:34:39;;;;;;;6.53;2.90;;;6.00;65.70;;;;;;5025995;28;20462;-82
2021/03/28 04:37:34;;;;;;;9.90;3.13;;;6.00;65.70;;;;;;5027294;28;20449;-82
2021/03/28 04:40:32;;;;;;;7.23;3.00;;;6.00;65.70;;;;;;5024719;28;20619;-82
2021/03/28 04:43:48;;;;;;;3.77;2.83;;;6.00;65.60;;;;;;5036929;28;20445;-82
2021/03/28 04:46:55;;;;;;;10.70;3.40;;;6.00;65.40;;;;;;5028507;28;20483;-82
2021/03/28 04:49:59;;;;;;;6.93;3.60;;;5.90;65.30;;;;;;5027265;28;20448;-82
2021/03/28 04:52:55;;;;;;;5.77;3.00;;;5.90;65.20;;;;;;5025406;28;20471;-82
2021/03/28 04:56:11;;;;;;;10.90;4.03;;;5.90;65.20;;;;;;5005113;28;20531;-81
2021/03/28 04:59:08;;;;;;;10.70;3.67;;;5.90;65.20;;;;;;5030016;28;20491;-81
2021/03/28 05:01:52;;;;;;;8.13;3.07;;;5.90;65.20;;;;;;5026863;28;20548;-81
2021/03/28 05:05:10;;;;;;;5.40;2.63;;;5.90;65.20;;;;;;5026332;28;20463;-81
2021/03/28 05:08:10;;;;;;;7.60;3.13;;;5.90;65.20;;;;;;4984073;28;20458;-80
2021/03/28 05:11:09;;;;;;;8.47;3.23;;;5.90;65.10;;;;;;4974587;28;20473;-80
2021/03/28 05:14:07;;;;;;;7.67;2.80;;;5.90;65.10;;;;;;5004005;28;20515;-81
2021/03/28 05:17:09;;;;;;;8.47;3.10;;;6.00;65.10;;;;;;5026069;28;20616;-81
2021/03/28 05:19:59;;;;;;;8.90;3.57;;;6.00;64.90;;;;;;5033284;28;20464;-81
2021/03/28 05:23:04;;;;;;;4.57;3.50;;;6.10;65.00;;;;;;5027755;28;20443;-82
2021/03/28 05:25:41;;;;;;;8.60;2.97;;;6.20;64.70;;;;;;5023889;28;20456;-81
2021/03/28 05:28:44;;;;;;;7.57;3.00;;;6.30;64.50;;;;;;5030856;28;20445;-81
2021/03/28 05:31:39;;;;;;;5.17;3.30;;;6.40;64.10;;;;;;5028389;28;20440;-82
2021/03/28 05:34:36;;;;;;;6.90;2.87;;;6.40;64.00;;;;;;5033723;28;20473;-81
2021/03/28 05:37:46;;;;;;;6.50;3.07;;;6.60;63.60;;;;;;5026853;28;20432;-81
2021/03/28 05:40:41;;;;;;;8.43;2.70;;;6.80;63.20;;;;;;5028837;28;20432;-82
2021/03/28 05:43:59;;;;;;;6.87;2.97;;;7.00;63.00;;;;;;5022172;28;20461;-79
2021/03/28 05:46:47;;;;;;;3.00;2.60;;;7.10;62.60;;;;;;5021166;28;20517;-80
2021/03/28 05:49:26;;;;;;;5.90;2.97;;;7.20;62.40;;;;;;5014777;28;20456;-79
2021/03/28 05:52:13;;;;;;;6.07;3.73;;;7.20;62.30;;;;;;5017055;28;20449;-79
2021/03/28 05:55:09;;;;;;;5.67;3.17;;;7.20;62.20;;;;;;5015265;28;20445;-78
2021/03/28 05:57:59;;;;;;;6.30;2.80;;;7.10;61.70;;;;;;5019580;28;20841;-79
2021/03/28 06:00:44;;;;;;;5.40;2.60;;;7.00;61.70;;;;;;5010436;28;20477;-79
2021/03/28 06:04:03;;;;;;;7.00;2.90;;;7.00;61.70;;;;;;5013078;28;20872;-79
2021/03/28 06:07:10;;;;;;;7.70;3.30;;;6.90;61.50;;;;;;5010057;28;20473;-79
2021/03/28 06:10:09;;;;;;;5.87;2.60;;;6.90;61.50;;;;;;5027709;28;20431;-79
2021/03/28 06:13:06;;;;;;;7.60;2.70;;;6.90;61.40;;;;;;5029466;28;20491;-79
2021/03/28 06:15:47;;;;;;;35.93;5.80;;;7.00;61.50;;;;;;5028179;28;20529;-79
2021/03/28 06:18:47;;;;;;;9.33;3.83;;;7.10;61.30;;;;;;5027537;28;20632;-79
2021/03/28 06:22:11;;;;;;;10.23;2.83;;;7.20;61.10;;;;;;5022399;28;20451;-79
2021/03/28 06:25:13;;;;;;;9.13;2.70;;;7.40;60.90;;;;;;4907741;29;20460;-79
2021/03/28 06:28:28;;;;;;;4.33;2.37;;;7.60;60.60;;;;;;4959404;28;20465;-79
2021/03/28 06:31:23;;;;;;;8.47;2.83;;;7.70;60.10;;;;;;5023701;28;20457;-79
2021/03/28 06:34:19;;;;;;;3.60;2.30;;;8.00;59.70;;;;;;5025062;28;20520;-79
2021/03/28 06:37:29;;;;;;;9.27;2.90;;;8.00;59.20;;;;;;5026132;28;20602;-79
2021/03/28 06:40:39;;;;;;;6.00;2.47;;;8.30;59.20;;;;;;5015406;28;20461;-79
2021/03/28 06:43:42;;;;;;;5.70;2.27;;;8.50;58.60;;;;;;5040337;28;20453;-80
2021/03/28 06:46:41;;;;;;;4.93;3.00;;;8.50;58.10;;;;;;5033171;28;20482;-79
2021/03/28 06:49:31;;;;;;;8.53;2.80;;;8.60;58.10;;;;;;5035361;28;20484;-79
2021/03/28 06:52:05;;;;;;;6.10;2.97;;;8.90;57.80;;;;;;5029801;28;20443;-78
2021/03/28 06:55:07;;;;;;;5.63;2.80;;;9.20;57.50;;;;;;5017353;28;20498;-79
2021/03/28 06:57:57;;;;;;;7.70;2.67;;;9.10;56.90;;;;;;5008569;28;20543;-79
2021/03/28 07:01:00;;;;;;;6.07;2.90;;;8.90;56.60;;;;;;5017060;28;20489;-79
2021/03/28 07:03:52;;;;;;;5.90;2.13;;;8.60;56.80;;;;;;5023407;28;20517;-79
2021/03/28 07:06:27;;;;;;;5.63;2.00;;;8.70;56.40;;;;;;5020042;28;20472;-80
2021/03/28 07:09:13;;;;;;;7.37;2.33;;;8.70;56.30;;;;;;5027524;28;21222;-79
2021/03/28 07:11:58;;;;;;;7.73;2.23;;;8.60;56.30;;;;;;5026719;28;20443;-79
2021/03/28 07:15:01;;;;;;;9.20;2.77;;;8.70;56.50;;;;;;5020519;28;20481;-79
2021/03/28 07:17:57;;;;;;;4.60;2.10;;;8.80;57.70;;;;;;5019826;28;20451;-80
2021/03/28 07:20:37;;;;;;;7.77;2.90;;;8.80;56.50;;;;;;5021053;28;20470;-79
2021/03/28 07:23:39;;;;;;;6.23;2.10;;;8.70;56.10;;;;;;5019537;28;20451;-79
2021/03/28 07:26:11;;;;;;;6.03;2.40;;;8.70;56.00;;;;;;5018577;28;20473;-81
2021/03/28 07:29:15;;;;;;;4.83;2.47;;;8.70;55.70;;;;;;5021815;28;20452;-80
2021/03/28 07:32:25;;;;;;;5.23;2.23;;;8.50;55.70;;;;;;5019004;28;21058;-81
2021/03/28 07:35:42;;;;;;;6.13;2.70;;;8.50;55.90;;;;;;5016204;28;20442;-80
2021/03/28 07:38:54;;;;;;;6.73;2.33;;;8.50;55.60;;;;;;5019583;28;20459;-79
2021/03/28 07:41:48;;;;;;;6.57;2.33;;;8.60;55.80;;;;;;4998029;28;20513;-80
2021/03/28 07:44:48;;;;;;;3.47;2.50;;;8.90;55.70;;;;;;5016386;28;20479;-80
2021/03/28 07:48:05;;;;;;;8.70;2.67;;;8.90;55.50;;;;;;5015686;28;20534;-79
2021/03/28 07:51:02;;;;;;;4.63;2.70;;;9.00;55.40;;;;;;5010765;28;20455;-79
2021/03/28 07:54:06;;;;;;;8.00;2.93;;;9.30;55.30;;;;;;5020239;28;20470;-79
2021/03/28 07:57:24;;;;;;;11.90;3.90;;;9.50;55.10;;;;;;5013755;28;20465;-80
2021/03/28 08:00:03;;;;;;;4.73;2.63;;;9.60;54.70;;;;;;5021584;28;20484;-80
2021/03/28 08:02:55;;;;;;;7.53;2.70;;;9.60;54.60;;;;;;5026063;28;20464;-80
2021/03/28 08:05:57;;;;;;;6.40;2.83;;;9.80;54.40;;;;;;5025944;28;20491;-81
2021/03/28 08:08:45;;;;;;;9.27;2.80;;;10.10;53.50;;;;;;4992845;28;20447;-80
2021/03/28 08:11:51;;;;;;;5.03;2.80;;;10.00;52.80;;;;;;5023595;28;20510;-80
2021/03/28 08:14:40;;;;;;;4.63;2.50;;;10.10;52.90;;;;;;4949518;28;20623;-80
2021/03/28 08:17:37;;;;;;;6.57;2.50;;;10.40;53.00;;;;;;4948652;29;20461;-79
2021/03/28 08:20:39;;;;;;;7.33;3.17;;;10.70;52.60;;;;;;5009219;28;21186;-79
2021/03/28 08:23:48;;;;;;;14.23;4.07;;;10.80;52.30;;;;;;4979425;28;20455;-80
2021/03/28 08:26:40;;;;;;;5.80;3.00;;;11.00;52.40;;;;;;5022929;28;20531;-80
2021/03/28 08:29:22;;;;;;;7.90;2.93;;;11.30;52.10;;;;;;5013704;28;20467;-79
2021/03/28 08:31:57;;;;;;;5.93;2.77;;;11.30;51.90;;;;;;5025824;28;20535;-79
2021/03/28 08:35:12;;;;;;;5.70;2.70;;;11.20;51.50;;;;;;5016674;28;20479;-79
2021/03/28 08:38:02;;;;;;;8.80;3.13;;;10.80;51.50;;;;;;5027553;28;20444;-80
2021/03/28 08:40:53;;;;;;;7.50;3.37;;;10.50;52.00;;;;;;5021687;28;20454;-80
2021/03/28 08:44:02;;;;;;;6.27;2.80;;;10.40;52.10;;;;;;5016840;28;20463;-80
2021/03/28 08:47:07;;;;;;;6.37;2.73;;;10.50;52.20;;;;;;5024731;28;20491;-79
2021/03/28 08:49:42;;;;;;;9.07;2.60;;;10.60;52.10;;;;;;5022803;28;20439;-80
2021/03/28 08:52:42;;;;;;;4.90;2.90;;;10.90;52.10;;;;;;5014976;28;20451;-79
2021/03/28 08:55:29;;;;;;;29.23;5.00;;;11.30;51.80;;;;;;5016640;28;20463;-79
2021/03/28 08:58:02;;;;;;;4.40;2.53;;;10.80;51.50;;;;;;5021760;28;20447;-82
2021/03/28 09:00:36;;;;;;;6.47;3.10;;;10.50;51.70;;;;;;5026417;28;20474;-79
2021/03/28 09:03:39;;;;;;;9.20;3.30;;;10.70;51.80;;;;;;5024033;28;20465;-80
2021/03/28 09:06:11;;;;;;;4.60;2.60;;;11.10;51.60;;;;;;5023768;28;20573;-80
2021/03/28 09:08:49;;;;;;;6.93;3.30;;;11.60;51.20;;;;;;5020598;28;20515;-80
2021/03/28 09:11:43;;;;;;;7.57;3.73;;;12.00;51.00;;;;;;5021718;28;20452;-79
2021/03/28 09:14:23;;;;;;;13.17;3.90;;;12.30;50.70;;;;;;5021246;28;20460;-79
2021/03/28 09:16:58;;;;;;;4.43;2.87;;;12.30;50.20;;;;;;5017445;28;20474;-79
2021/03/28 09:20:13;;;;;;;4.70;2.93;;;12.40;50.20;;;;;;5019937;28;20452;-78
2021/03/28 09:22:48;;;;;;;4.73;2.40;;;12.60;49.90;;;;;;4935396;29;20455;-78
2021/03/28 09:25:22;;;;;;;7.10;2.50;;;12.50;49.40;;;;;;5007121;28;20469;-79
2021/03/28 09:27:56;;;;;;;5.47;2.90;;;12.30;49.70;;;;;;5011677;28;20521;-78
2021/03/28 09:30:30;;;;;;;6.03;2.83;;;11.90;49.40;;;;;;5015582;28;20467;-79
2021/03/28 09:33:36;;;;;;;6.10;2.30;;;11.70;49.80;;;;;;5025000;28;20565;-78
2021/03/28 09:36:29;;;;;;;5.90;2.50;;;12.30;49.50;;;;;;5008223;28;20461;-78
2021/03/28 09:39:28;;;;;;;8.33;3.07;;;12.40;48.80;;;;;;5013623;28;20444;-77
2021/03/28 09:42:09;;;;;;;7.63;3.00;;;12.70;48.80;;;;;;5004758;28;20468;-78
2021/03/28 09:44:42;;;;;;;7.33;2.70;;;12.80;48.20;;;;;;5011529;28;20471;-77
2021/03/28 09:47:17;;;;;;;5.22;2.60;;;12.50;48.30;;;;;;5009507;28;20955;-78
2021/03/28 09:49:59;;;;;;;6.17;2.73;;;13.40;48.30;;;;;;5001627;28;20727;-78
2021/03/28 09:52:52;;;;;;;10.23;3.63;;;13.50;47.60;;;;;;5005783;28;20447;-79
2021/03/28 09:55:45;;;;;;;5.67;2.80;;;13.30;47.00;;;;;;5022304;28;20460;-78
2021/03/28 09:58:48;;;;;;;6.43;3.03;;;13.30;47.80;;;;;;5013877;28;20454;-78
2021/03/28 10:01:28;;;;;;;6.10;2.83;;;13.50;47.50;;;;;;5016815;28;20538;-79
2021/03/28 10:04:00;;;;;;;5.80;2.80;;;13.90;47.50;;;;;;5016026;28;20443;-79
2021/03/28 10:06:28;;;;;;;6.70;3.33;;;14.10;47.10;;;;;;5018115;28;20584;-78
2021/03/28 10:09:02;;;;;;;8.83;3.37;;;14.20;47.00;;;;;;5024589;28;20465;-78
2021/03/28 10:11:37;;;;;;;6.67;2.47;;;13.60;45.70;;;;;;5015617;28;20444;-78
2021/03/28 10:14:32;;;;;;;6.90;3.37;;;13.40;45.50;;;;;;5008058;28;20471;-78
2021/03/28 10:17:18;;;;;;;7.30;2.63;;;13.90;45.30;;;;;;5011692;28;20517;-78
2021/03/28 10:19:48;;;;;;;7.83;2.43;;;13.90;45.00;;;;;;5007873;28;20459;-79
2021/03/28 10:22:30;;;;;;;5.93;2.80;;;14.10;45.00;;;;;;5012658;28;20456;-79
2021/03/28 10:25:28;;;;;;;4.60;2.47;;;13.70;45.00;;;;;;5008409;28;21033;-77
2021/03/28 10:28:29;;;;;;;5.87;2.67;;;12.90;44.80;;;;;;5007531;28;20468;-78
2021/03/28 10:31:21;;;;;;;9.73;2.57;;;13.20;45.20;;;;;;5017232;28;20483;-79
2021/03/28 10:34:08;;;;;;;4.23;2.30;;;13.70;44.50;;;;;;5010194;28;20471;-79
2021/03/28 10:36:45;;;;;;;5.80;2.40;;;13.90;44.40;;;;;;5019201;28;20450;-79
2021/03/28 10:39:43;;;;;;;7.20;2.67;;;13.70;44.20;;;;;;5019030;28;20471;-78
2021/03/28 10:42:39;;;;;;;5.13;2.47;;;13.90;44.30;;;;;;5017745;28;20936;-79
2021/03/28 10:45:35;;;;;;;4.60;2.07;;;14.50;44.00;;;;;;5012233;28;20506;-77
2021/03/28 10:48:41;;;;;;;5.00;2.37;;;14.50;43.60;;;;;;5012080;28;20448;-77
2021/03/28 10:51:48;;;;;;;4.87;2.43;;;14.30;43.50;;;;;;5009973;28;20545;-77
2021/03/28 10:54:38;;;;;;;9.30;2.73;;;14.50;43.30;;;;;;5012379;28;20503;-78
2021/03/28 10:58:01;;;;;;;5.87;2.30;;;15.50;43.20;;;;;;5011871;28;20448;-81
2021/03/28 11:01:03;;;;;;;3.90;2.57;;;16.00;42.50;;;;;;5012851;28;20833;-80
2021/03/28 11:04:19;;;;;;;4.00;2.03;;;15.80;41.80;;;;;;5019840;28;20456;-78
2021/03/28 11:07:13;;;;;;;7.60;3.07;;;15.20;42.10;;;;;;5024759;28;20481;-80
2021/03/28 11:10:13;;;;;;;3.83;2.53;;;15.70;41.20;;;;;;5023338;28;20842;-78
2021/03/28 11:13:01;;;;;;;5.27;2.40;;;15.70;41.00;;;;;;5024031;28;20479;-82
2021/03/28 11:15:39;;;;;;;4.17;1.77;;;15.80;40.60;;;;;;5030201;28;20498;-83
2021/03/28 11:18:34;;;;;;;4.30;2.20;;;15.00;40.40;;;;;;5024931;28;20551;-81
2021/03/28 11:21:09;;;;;;;3.30;1.93;;;15.30;41.10;;;;;;5019688;28;20448;-78
2021/03/28 11:24:02;;;;;;;4.40;2.27;;;15.30;41.20;;;;;;5028671;28;20447;-79
2021/03/28 11:27:08;;;;;;;8.07;2.20;;;14.90;40.70;;;;;;5033638;28;20459;-78
2021/03/28 11:30:07;;;;;;;5.13;2.43;;;14.60;41.20;;;;;;5032528;28;20451;-78
2021/03/28 11:32:54;;;;;;;3.47;1.90;;;14.40;40.70;;;;;;5003277;28;21030;-78
2021/03/28 11:35:27;;;;;;;2.77;1.77;;;14.30;40.70;;;;;;5017372;28;20485;-79
2021/03/28 11:38:15;;;;;;;4.10;2.30;;;14.10;40.80;;;;;;5017645;28;20448;-80
2021/03/28 11:40:44;;;;;;;5.23;2.00;;;14.40;40.90;;;;;;5013540;28;20448;-78
2021/03/28 11:43:32;;;;;;;4.77;2.10;;;14.70;40.80;;;;;;5016974;28;20460;-86
2021/03/28 11:46:20;;;;;;;4.83;2.10;;;14.50;40.20;;;;;;5017543;28;20824;-78
2021/03/28 11:49:04;;;;;;;5.20;2.07;;;14.60;40.50;;;;;;5017948;28;20467;-80
2021/03/28 11:52:02;;;;;;;6.90;2.43;;;14.60;40.30;;;;;;5013386;28;20483;-76
2021/03/28 11:54:30;;;;;;;5.00;2.30;;;14.30;40.10;;;;;;5015293;28;20471;-78
2021/03/28 11:57:13;;;;;;;4.00;2.30;;;14.10;40.10;;;;;;5013720;28;20506;-79
2021/03/28 11:59:43;;;;;;;3.20;2.40;;;14.00;39.90;;;;;;5010976;28;20546;-75
2021/03/28 12:02:28;;;;;;;6.60;2.30;;;13.90;40.00;;;;;;5000483;28;20483;-78
2021/03/28 12:05:32;;;;;;;5.20;2.20;;;14.40;39.80;;;;;;5016423;28;20547;-78
2021/03/28 12:08:10;;;;;;;3.17;1.93;;;14.40;40.00;;;;;;5030850;28;20436;-77
2021/03/28 12:10:37;;;;;;;3.33;2.20;;;14.40;40.00;;;;;;5016855;28;20458;-77
2021/03/28 12:13:30;;;;;;;4.13;2.47;;;14.70;39.90;;;;;;5012405;28;20518;-77
2021/03/28 12:16:01;;;;;;;4.10;2.60;;;14.30;39.40;;;;;;5014923;28;20456;-76
2021/03/28 12:18:55;;;;;;;4.80;2.27;;;14.60;39.30;;;;;;5022003;28;20473;-78
2021/03/28 12:21:49;;;;;;;3.40;2.10;;;14.70;39.80;;;;;;5022290;28;20455;-79
2021/03/28 12:24:27;;;;;;;2.93;2.27;;;15.00;39.70;;;;;;5009629;28;20445;-77
2021/03/28 12:26:59;;;;;;;2.70;2.17;;;14.70;39.60;;;;;;5014140;28;20497;-77
2021/03/28 12:29:48;;;;;;;7.50;2.97;;;14.70;39.90;;;;;;5012881;28;20478;-77
2021/03/28 12:32:44;;;;;;;2.93;1.70;;;14.70;39.80;;;;;;5012131;28;21003;-78
2021/03/28 12:35:16;;;;;;;3.70;2.10;;;14.60;40.00;;;;;;5009550;28;20962;-78
2021/03/28 12:37:47;;;;;;;3.30;2.17;;;14.90;40.00;;;;;;5010397;28;20938;-79
2021/03/28 12:40:32;;;;;;;3.57;2.10;;;14.70;39.20;;;;;;5013985;28;21023;-76
2021/03/28 12:43:02;;;;;;;3.50;1.90;;;14.10;39.30;;;;;;5010169;28;20463;-77
2021/03/28 12:45:36;;;;;;;2.30;2.10;;;13.90;39.50;;;;;;5011469;28;20567;-78
2021/03/28 12:48:18;;;;;;;6.73;2.97;;;13.90;39.70;;;;;;5017242;28;20996;-77
2021/03/28 12:50:48;;;;;;;4.22;2.60;;;13.90;39.40;;;;;;5011905;28;20451;-76
2021/03/28 12:53:20;;;;;;;4.13;2.73;;;14.10;39.40;;;;;;5017441;28;21017;-77
2021/03/28 12:55:48;;;;;;;5.13;3.07;;;13.90;39.60;;;;;;5015766;28;20507;-76
2021/03/28 12:58:18;;;;;;;6.20;2.90;;;14.30;39.10;;;;;;5013076;28;20859;-78
2021/03/28 13:00:56;;;;;;;3.93;2.47;;;14.60;39.40;;;;;;5010287;28;20510;-78
2021/03/28 13:03:31;;;;;;;4.40;2.37;;;14.70;39.00;;;;;;5010732;28;21016;-78
2021/03/28 13:06:18;;;;;;;3.20;2.10;;;14.70;39.20;;;;;;5010832;28;20485;-78
2021/03/28 13:08:49;;;;;;;6.40;2.60;;;14.50;38.60;;;;;;5006658;28;20450;-77
2021/03/28 13:11:16;;;;;;;2.13;1.90;;;14.60;38.80;;;;;;5018295;28;20504;-78
2021/03/28 13:13:46;;;;;;;3.40;2.13;;;14.60;39.00;;;;;;5011728;28;20879;-78
2021/03/28 13:16:26;;;;;;;3.10;1.90;;;14.80;38.90;;;;;;5013409;28;20460;-77
2021/03/28 13:18:53;;;;;;;5.60;2.30;;;14.90;39.30;;;;;;5008425;28;20455;-76
2021/03/28 13:21:23;;;;;;;5.03;2.87;;;14.50;39.00;;;;;;5009415;28;20459;-77
2021/03/28 13:24:01;;;;;;;3.23;2.37;;;14.50;39.50;;;;;;5013868;28;20470;-78
2021/03/28 13:26:28;;;;;;;6.27;2.33;;;14.70;39.30;;;;;;5012462;28;20504;-77
2021/03/28 13:29:22;;;;;;;4.80;2.20;;;14.80;39.10;;;;;;5014906;28;20448;-77
2021/03/28 13:31:57;;;;;;;3.27;2.20;;;14.80;38.90;;;;;;5013956;28;20462;-77
2021/03/28 13:34:31;;;;;;;6.30;2.60;;;14.90;38.80;;;;;;5013362;28;20962;-78
2021/03/28 13:37:08;;;;;;;2.10;1.90;;;14.60;38.80;;;;;;5018454;28;21026;-76
2021/03/28 13:39:37;;;;;;;3.47;2.33;;;14.40;38.60;;;;;;5014449;28;20524;-77
2021/03/28 13:42:23;;;;;;;5.40;2.30;;;14.60;38.80;;;;;;5009838;28;20463;-77
2021/03/28 13:45:00;;;;;;;4.80;2.70;;;14.80;38.60;;;;;;5009197;28;20559;-77
2021/03/28 13:47:45;;;;;;;3.60;2.07;;;14.70;38.60;;;;;;5001542;28;20444;-77
2021/03/28 13:50:45;;;;;;;5.50;1.73;;;14.90;38.90;;;;;;5015967;28;20452;-77
2021/03/28 13:53:31;;;;;;;3.97;2.07;;;15.00;38.60;;;;;;5009025;28;20464;-78
2021/03/28 13:56:26;;;;;;;6.77;2.50;;;14.80;38.50;;;;;;5011940;28;20575;-78
2021/03/28 13:59:16;;;;;;;3.60;2.63;;;14.90;38.50;;;;;;5010260;28;20998;-78
2021/03/28 14:02:01;;;;;;;2.87;2.10;;;15.10;38.50;;;;;;5010164;28;20502;-77
2021/03/28 14:04:35;;;;;;;3.47;2.60;;;15.20;38.10;;;;;;5009679;28;20440;-78
2021/03/28 14:07:19;;;;;;;3.63;2.00;;;15.20;37.70;;;;;;5014209;28;20463;-77
2021/03/28 14:09:49;;;;;;;4.87;2.80;;;15.10;38.20;;;;;;5012137;28;20456;-78
2021/03/28 14:12:25;;;;;;;4.60;2.50;;;15.10;37.40;;;;;;5019865;28;20451;-78
2021/03/28 14:15:09;;;;;;;3.90;2.50;;;15.10;37.30;;;;;;5020321;28;20482;-77
2021/03/28 14:17:36;;;;;;;4.90;2.40;;;15.00;37.50;;;;;;5015285;28;20903;-79
2021/03/28 14:20:15;;;;;;;2.40;1.90;;;15.10;37.50;;;;;;5016608;28;21035;-78
2021/03/28 14:22:46;;;;;;;2.93;1.83;;;15.20;37.50;;;;;;5006003;28;20452;-76
2021/03/28 14:25:27;;;;;;;3.10;1.83;;;15.30;37.30;;;;;;5013646;28;20513;-78
2021/03/28 14:27:54;;;;;;;3.17;1.97;;;15.20;37.10;;;;;;5015003;28;20458;-78
2021/03/28 14:30:24;;;;;;;4.00;2.40;;;15.20;37.20;;;;;;5016966;28;20451;-77
2021/03/28 14:32:58;;;;;;;3.73;2.13;;;15.20;37.00;;;;;;5016859;28;20463;-77
2021/03/28 14:35:40;;;;;;;2.97;1.80;;;15.20;37.00;;;;;;5021444;28;20455;-77
2021/03/28 14:38:48;;;;;;;2.90;2.43;;;15.30;37.30;;;;;;5019541;28;20542;-78